sensor_id;sensor_type;location;lat;lon;timestamp;P1;durP1;ratioP1;P2;durP2;ratioP2
2129;SDS011;1071;52.544;13.374;2023-06-26T00:02:17;14.80;;;13.60;;
2129;SDS011;1071;52.544;13.374;2023-06-26T00:04:47;12.80;;;11.70;;
2129;SDS011;1071;52.544;13.374;2023-06-26T00:07:22;12.43;;;11.40;;
2129;SDS011;1071;52.544;13.374;2023-06-26T00:09:59;12.50;;;11.40;;
2129;SDS011;1071;52.544;13.374;2023-06-26T00:12:27;13.37;;;12.17;;
2129;SDS011;1071;52.544;13.374;2023-06-26T00:14:55;12.53;;;11.53;;
2129;SDS011;1071;52.544;13.374;2023-06-26T00:17:23;12.63;;;11.53;;
2129;SDS011;1071;52.544;13.374;2023-06-26T00:19:50;12.93;;;11.70;;
2129;SDS011;1071;52.544;13.374;2023-06-26T00:22:18;12.73;;;11.53;;
2129;SDS011;1071;52.544;13.374;2023-06-26T00:24:46;11.13;;;10.20;;
2129;SDS011;1071;52.544;13.374;2023-06-26T00:27:14;11.37;;;10.27;;
2129;SDS011;1071;52.544;13.374;2023-06-26T00:29:44;10.97;;;9.97;;
2129;SDS011;1071;52.544;13.374;2023-06-26T00:32:17;11.33;;;10.27;;
2129;SDS011;1071;52.544;13.374;2023-06-26T00:34:44;12.27;;;11.17;;
2129;SDS011;1071;52.544;13.374;2023-06-26T00:37:12;13.60;;;12.30;;
2129;SDS011;1071;52.544;13.374;2023-06-26T00:39:39;11.43;;;10.53;;
2129;SDS011;1071;52.544;13.374;2023-06-26T00:42:10;11.33;;;10.33;;
2129;SDS011;1071;52.544;13.374;2023-06-26T00:44:37;10.60;;;9.70;;
2129;SDS011;1071;52.544;13.374;2023-06-26T00:47:05;10.70;;;9.80;;
2129;SDS011;1071;52.544;13.374;2023-06-26T00:49:41;12.30;;;11.30;;
2129;SDS011;1071;52.544;13.374;2023-06-26T00:52:08;10.97;;;10.00;;
2129;SDS011;1071;52.544;13.374;2023-06-26T00:54:38;11.47;;;10.47;;
2129;SDS011;1071;52.544;13.374;2023-06-26T00:57:06;11.83;;;10.93;;
2129;SDS011;1071;52.544;13.374;2023-06-26T00:59:35;10.80;;;9.90;;
2129;SDS011;1071;52.544;13.374;2023-06-26T01:02:07;11.43;;;10.33;;
2129;SDS011;1071;52.544;13.374;2023-06-26T01:04:35;11.07;;;10.27;;
2129;SDS011;1071;52.544;13.374;2023-06-26T01:07:02;11.20;;;10.30;;
2129;SDS011;1071;52.544;13.374;2023-06-26T01:09:33;12.50;;;11.40;;
2129;SDS011;1071;52.544;13.374;2023-06-26T01:12:00;10.97;;;10.17;;
2129;SDS011;1071;52.544;13.374;2023-06-26T01:14:28;11.73;;;10.73;;
2129;SDS011;1071;52.544;13.374;2023-06-26T01:16:56;11.20;;;10.23;;
2129;SDS011;1071;52.544;13.374;2023-06-26T01:19:24;10.80;;;9.90;;
2129;SDS011;1071;52.544;13.374;2023-06-26T01:21:55;11.80;;;10.90;;
2129;SDS011;1071;52.544;13.374;2023-06-26T01:24:30;11.30;;;10.30;;
2129;SDS011;1071;52.544;13.374;2023-06-26T01:27:03;10.50;;;9.63;;
2129;SDS011;1071;52.544;13.374;2023-06-26T01:29:32;12.10;;;11.10;;
2129;SDS011;1071;52.544;13.374;2023-06-26T01:32:01;10.80;;;10.00;;
2129;SDS011;1071;52.544;13.374;2023-06-26T01:34:29;11.20;;;10.20;;
2129;SDS011;1071;52.544;13.374;2023-06-26T01:36:57;11.43;;;10.53;;
2129;SDS011;1071;52.544;13.374;2023-06-26T01:39:27;11.80;;;10.87;;
2129;SDS011;1071;52.544;13.374;2023-06-26T01:41:54;10.03;;;9.23;;
2129;SDS011;1071;52.544;13.374;2023-06-26T01:44:28;12.17;;;11.13;;
2129;SDS011;1071;52.544;13.374;2023-06-26T01:47:00;11.30;;;10.40;;
2129;SDS011;1071;52.544;13.374;2023-06-26T01:49:41;11.23;;;10.37;;
2129;SDS011;1071;52.544;13.374;2023-06-26T01:52:14;11.47;;;10.57;;
2129;SDS011;1071;52.544;13.374;2023-06-26T01:54:48;12.00;;;10.90;;
2129;SDS011;1071;52.544;13.374;2023-06-26T01:57:21;11.50;;;10.57;;
2129;SDS011;1071;52.544;13.374;2023-06-26T01:59:53;11.23;;;10.33;;
2129;SDS011;1071;52.544;13.374;2023-06-26T02:02:23;10.23;;;9.53;;
2129;SDS011;1071;52.544;13.374;2023-06-26T02:04:51;10.37;;;9.47;;
2129;SDS011;1071;52.544;13.374;2023-06-26T02:07:35;11.73;;;10.83;;
2129;SDS011;1071;52.544;13.374;2023-06-26T02:10:07;12.00;;;11.10;;
2129;SDS011;1071;52.544;13.374;2023-06-26T02:12:35;10.97;;;10.07;;
2129;SDS011;1071;52.544;13.374;2023-06-26T02:15:05;12.17;;;11.17;;
2129;SDS011;1071;52.544;13.374;2023-06-26T02:17:33;11.83;;;10.87;;
2129;SDS011;1071;52.544;13.374;2023-06-26T02:20:03;11.20;;;10.20;;
2129;SDS011;1071;52.544;13.374;2023-06-26T02:22:30;11.70;;;10.70;;
2129;SDS011;1071;52.544;13.374;2023-06-26T02:24:57;10.63;;;9.50;;
2129;SDS011;1071;52.544;13.374;2023-06-26T02:27:24;11.10;;;10.20;;
2129;SDS011;1071;52.544;13.374;2023-06-26T02:29:52;11.40;;;10.60;;
2129;SDS011;1071;52.544;13.374;2023-06-26T02:32:21;10.47;;;9.67;;
2129;SDS011;1071;52.544;13.374;2023-06-26T02:34:48;10.20;;;9.50;;
2129;SDS011;1071;52.544;13.374;2023-06-26T02:37:16;11.77;;;10.77;;
2129;SDS011;1071;52.544;13.374;2023-06-26T02:39:43;11.20;;;10.20;;
2129;SDS011;1071;52.544;13.374;2023-06-26T02:42:10;11.73;;;10.80;;
2129;SDS011;1071;52.544;13.374;2023-06-26T02:44:37;12.97;;;11.23;;
2129;SDS011;1071;52.544;13.374;2023-06-26T02:47:05;11.37;;;10.50;;
2129;SDS011;1071;52.544;13.374;2023-06-26T02:49:36;10.40;;;9.60;;
2129;SDS011;1071;52.544;13.374;2023-06-26T02:52:03;12.60;;;11.50;;
2129;SDS011;1071;52.544;13.374;2023-06-26T02:54:31;10.57;;;9.80;;
2129;SDS011;1071;52.544;13.374;2023-06-26T02:56:58;10.93;;;10.03;;
2129;SDS011;1071;52.544;13.374;2023-06-26T02:59:25;12.03;;;11.13;;
2129;SDS011;1071;52.544;13.374;2023-06-26T03:01:53;11.43;;;10.53;;
2129;SDS011;1071;52.544;13.374;2023-06-26T03:04:20;11.73;;;10.83;;
2129;SDS011;1071;52.544;13.374;2023-06-26T03:06:54;11.47;;;10.57;;
2129;SDS011;1071;52.544;13.374;2023-06-26T03:09:21;11.67;;;10.70;;
2129;SDS011;1071;52.544;13.374;2023-06-26T03:11:50;12.30;;;11.30;;
2129;SDS011;1071;52.544;13.374;2023-06-26T03:14:18;13.87;;;12.77;;
2129;SDS011;1071;52.544;13.374;2023-06-26T03:16:45;12.93;;;11.93;;
2129;SDS011;1071;52.544;13.374;2023-06-26T03:19:12;12.80;;;11.80;;
2129;SDS011;1071;52.544;13.374;2023-06-26T03:21:39;11.90;;;11.00;;
2129;SDS011;1071;52.544;13.374;2023-06-26T03:24:07;12.03;;;11.13;;
2129;SDS011;1071;52.544;13.374;2023-06-26T03:26:37;13.03;;;11.93;;
2129;SDS011;1071;52.544;13.374;2023-06-26T03:29:05;12.47;;;11.47;;
2129;SDS011;1071;52.544;13.374;2023-06-26T03:31:32;12.80;;;11.83;;
2129;SDS011;1071;52.544;13.374;2023-06-26T03:34:01;12.23;;;11.13;;
2129;SDS011;1071;52.544;13.374;2023-06-26T03:36:29;12.20;;;10.77;;
2129;SDS011;1071;52.544;13.374;2023-06-26T03:38:57;11.50;;;10.50;;
2129;SDS011;1071;52.544;13.374;2023-06-26T03:41:27;12.60;;;11.60;;
2129;SDS011;1071;52.544;13.374;2023-06-26T03:43:54;11.67;;;10.83;;
2129;SDS011;1071;52.544;13.374;2023-06-26T03:46:25;12.67;;;11.63;;
2129;SDS011;1071;52.544;13.374;2023-06-26T03:48:53;12.37;;;11.37;;
2129;SDS011;1071;52.544;13.374;2023-06-26T03:51:20;12.57;;;11.57;;
2129;SDS011;1071;52.544;13.374;2023-06-26T03:53:54;11.90;;;11.00;;
2129;SDS011;1071;52.544;13.374;2023-06-26T03:56:21;12.60;;;11.70;;
2129;SDS011;1071;52.544;13.374;2023-06-26T03:58:54;13.70;;;12.60;;
2129;SDS011;1071;52.544;13.374;2023-06-26T04:01:21;14.20;;;13.00;;
2129;SDS011;1071;52.544;13.374;2023-06-26T04:03:48;13.00;;;11.90;;
2129;SDS011;1071;52.544;13.374;2023-06-26T04:06:18;13.90;;;12.73;;
2129;SDS011;1071;52.544;13.374;2023-06-26T04:08:45;14.00;;;12.80;;
2129;SDS011;1071;52.544;13.374;2023-06-26T04:11:13;12.57;;;11.57;;
2129;SDS011;1071;52.544;13.374;2023-06-26T04:13:40;14.83;;;13.53;;
2129;SDS011;1071;52.544;13.374;2023-06-26T04:16:08;13.47;;;12.40;;
2129;SDS011;1071;52.544;13.374;2023-06-26T04:18:36;12.63;;;11.67;;
2129;SDS011;1071;52.544;13.374;2023-06-26T04:21:04;13.03;;;11.93;;
2129;SDS011;1071;52.544;13.374;2023-06-26T04:23:33;13.80;;;12.70;;
2129;SDS011;1071;52.544;13.374;2023-06-26T04:26:00;13.27;;;12.17;;
2129;SDS011;1071;52.544;13.374;2023-06-26T04:28:27;12.93;;;11.93;;
2129;SDS011;1071;52.544;13.374;2023-06-26T04:30:55;12.93;;;11.93;;
2129;SDS011;1071;52.544;13.374;2023-06-26T04:33:23;13.60;;;12.57;;
2129;SDS011;1071;52.544;13.374;2023-06-26T04:35:54;12.40;;;11.40;;
2129;SDS011;1071;52.544;13.374;2023-06-26T04:38:21;12.80;;;11.80;;
2129;SDS011;1071;52.544;13.374;2023-06-26T04:40:48;14.60;;;12.87;;
2129;SDS011;1071;52.544;13.374;2023-06-26T04:43:18;14.50;;;13.40;;
2129;SDS011;1071;52.544;13.374;2023-06-26T04:45:45;12.77;;;11.67;;
2129;SDS011;1071;52.544;13.374;2023-06-26T04:48:12;13.53;;;12.43;;
2129;SDS011;1071;52.544;13.374;2023-06-26T04:50:41;13.40;;;12.30;;
2129;SDS011;1071;52.544;13.374;2023-06-26T04:53:17;14.00;;;12.90;;
2129;SDS011;1071;52.544;13.374;2023-06-26T04:55:45;13.80;;;12.70;;
2129;SDS011;1071;52.544;13.374;2023-06-26T04:58:12;13.50;;;12.50;;
2129;SDS011;1071;52.544;13.374;2023-06-26T05:00:39;14.20;;;13.00;;
2129;SDS011;1071;52.544;13.374;2023-06-26T05:03:07;15.40;;;14.10;;
2129;SDS011;1071;52.544;13.374;2023-06-26T05:05:34;14.70;;;13.60;;
2129;SDS011;1071;52.544;13.374;2023-06-26T05:08:14;15.57;;;14.27;;
2129;SDS011;1071;52.544;13.374;2023-06-26T05:10:45;11.80;;;10.93;;
2129;SDS011;1071;52.544;13.374;2023-06-26T05:13:12;12.43;;;11.37;;
2129;SDS011;1071;52.544;13.374;2023-06-26T05:15:42;12.50;;;11.50;;
2129;SDS011;1071;52.544;13.374;2023-06-26T05:18:09;13.23;;;12.13;;
2129;SDS011;1071;52.544;13.374;2023-06-26T05:20:37;13.60;;;12.20;;
2129;SDS011;1071;52.544;13.374;2023-06-26T05:23:05;13.93;;;12.90;;
2129;SDS011;1071;52.544;13.374;2023-06-26T05:25:34;12.53;;;11.53;;
2129;SDS011;1071;52.544;13.374;2023-06-26T05:28:01;12.50;;;11.50;;
2129;SDS011;1071;52.544;13.374;2023-06-26T05:30:30;11.87;;;10.87;;
2129;SDS011;1071;52.544;13.374;2023-06-26T05:33:00;14.37;;;13.17;;
2129;SDS011;1071;52.544;13.374;2023-06-26T05:35:31;12.40;;;11.30;;
2129;SDS011;1071;52.544;13.374;2023-06-26T05:37:58;15.27;;;13.90;;
2129;SDS011;1071;52.544;13.374;2023-06-26T05:40:28;14.20;;;13.00;;
2129;SDS011;1071;52.544;13.374;2023-06-26T05:42:57;14.37;;;13.20;;
2129;SDS011;1071;52.544;13.374;2023-06-26T05:45:25;17.20;;;15.70;;
2129;SDS011;1071;52.544;13.374;2023-06-26T05:47:52;15.63;;;14.33;;
2129;SDS011;1071;52.544;13.374;2023-06-26T05:50:19;15.80;;;14.50;;
2129;SDS011;1071;52.544;13.374;2023-06-26T05:52:46;15.37;;;14.10;;
2129;SDS011;1071;52.544;13.374;2023-06-26T05:55:14;15.00;;;13.60;;
2129;SDS011;1071;52.544;13.374;2023-06-26T05:57:42;15.50;;;14.10;;
2129;SDS011;1071;52.544;13.374;2023-06-26T06:00:13;14.33;;;13.03;;
2129;SDS011;1071;52.544;13.374;2023-06-26T06:02:41;14.87;;;13.60;;
2129;SDS011;1071;52.544;13.374;2023-06-26T06:05:12;14.33;;;13.13;;
2129;SDS011;1071;52.544;13.374;2023-06-26T06:07:41;14.53;;;13.43;;
2129;SDS011;1071;52.544;13.374;2023-06-26T06:10:08;14.00;;;12.80;;
2129;SDS011;1071;52.544;13.374;2023-06-26T06:12:35;16.40;;;14.90;;
2129;SDS011;1071;52.544;13.374;2023-06-26T06:15:02;13.63;;;12.63;;
2129;SDS011;1071;52.544;13.374;2023-06-26T06:17:31;15.23;;;14.03;;
2129;SDS011;1071;52.544;13.374;2023-06-26T06:20:00;14.13;;;12.93;;
2129;SDS011;1071;52.544;13.374;2023-06-26T06:22:27;12.30;;;11.40;;
2129;SDS011;1071;52.544;13.374;2023-06-26T06:24:54;12.70;;;11.60;;
2129;SDS011;1071;52.544;13.374;2023-06-26T06:27:26;12.77;;;11.53;;
2129;SDS011;1071;52.544;13.374;2023-06-26T06:30:00;12.17;;;11.20;;
2129;SDS011;1071;52.544;13.374;2023-06-26T06:32:31;11.40;;;10.50;;
2129;SDS011;1071;52.544;13.374;2023-06-26T06:35:04;10.80;;;9.87;;
2129;SDS011;1071;52.544;13.374;2023-06-26T06:37:39;10.33;;;9.50;;
2129;SDS011;1071;52.544;13.374;2023-06-26T06:40:08;13.53;;;12.27;;
2129;SDS011;1071;52.544;13.374;2023-06-26T06:42:43;13.23;;;11.13;;
2129;SDS011;1071;52.544;13.374;2023-06-26T06:45:10;11.33;;;10.23;;
2129;SDS011;1071;52.544;13.374;2023-06-26T06:47:38;10.47;;;9.57;;
2129;SDS011;1071;52.544;13.374;2023-06-26T06:50:05;11.10;;;10.00;;
2129;SDS011;1071;52.544;13.374;2023-06-26T06:52:36;9.70;;;8.80;;
2129;SDS011;1071;52.544;13.374;2023-06-26T06:55:07;9.10;;;8.40;;
2129;SDS011;1071;52.544;13.374;2023-06-26T06:57:34;9.13;;;8.33;;
2129;SDS011;1071;52.544;13.374;2023-06-26T07:00:08;10.80;;;10.00;;
2129;SDS011;1071;52.544;13.374;2023-06-26T07:02:37;9.57;;;8.77;;
2129;SDS011;1071;52.544;13.374;2023-06-26T07:05:11;10.43;;;9.53;;
2129;SDS011;1071;52.544;13.374;2023-06-26T07:07:38;9.93;;;9.13;;
2129;SDS011;1071;52.544;13.374;2023-06-26T07:10:06;8.53;;;7.70;;
2129;SDS011;1071;52.544;13.374;2023-06-26T07:12:35;8.57;;;7.83;;
2129;SDS011;1071;52.544;13.374;2023-06-26T07:15:03;9.47;;;8.63;;
2129;SDS011;1071;52.544;13.374;2023-06-26T07:17:31;8.30;;;7.60;;
2129;SDS011;1071;52.544;13.374;2023-06-26T07:20:01;8.10;;;7.40;;
2129;SDS011;1071;52.544;13.374;2023-06-26T07:22:32;7.90;;;7.30;;
2129;SDS011;1071;52.544;13.374;2023-06-26T07:25:01;7.07;;;6.57;;
2129;SDS011;1071;52.544;13.374;2023-06-26T07:27:34;7.03;;;6.43;;
2129;SDS011;1071;52.544;13.374;2023-06-26T07:30:01;7.23;;;6.60;;
2129;SDS011;1071;52.544;13.374;2023-06-26T07:32:28;7.47;;;6.77;;
2129;SDS011;1071;52.544;13.374;2023-06-26T07:34:55;7.83;;;7.13;;
2129;SDS011;1071;52.544;13.374;2023-06-26T07:37:23;7.20;;;6.67;;
2129;SDS011;1071;52.544;13.374;2023-06-26T07:39:51;7.67;;;7.17;;
2129;SDS011;1071;52.544;13.374;2023-06-26T07:42:18;7.80;;;7.10;;
2129;SDS011;1071;52.544;13.374;2023-06-26T07:44:48;7.63;;;6.97;;
2129;SDS011;1071;52.544;13.374;2023-06-26T07:47:15;7.63;;;7.07;;
2129;SDS011;1071;52.544;13.374;2023-06-26T07:49:42;7.13;;;6.47;;
2129;SDS011;1071;52.544;13.374;2023-06-26T07:52:09;6.93;;;6.27;;
2129;SDS011;1071;52.544;13.374;2023-06-26T07:54:37;7.27;;;6.57;;
2129;SDS011;1071;52.544;13.374;2023-06-26T07:57:05;7.07;;;6.47;;
2129;SDS011;1071;52.544;13.374;2023-06-26T07:59:33;7.40;;;6.70;;
2129;SDS011;1071;52.544;13.374;2023-06-26T08:02:01;8.07;;;6.90;;
2129;SDS011;1071;52.544;13.374;2023-06-26T08:04:28;7.13;;;6.53;;
2129;SDS011;1071;52.544;13.374;2023-06-26T08:06:57;7.40;;;6.90;;
2129;SDS011;1071;52.544;13.374;2023-06-26T08:09:26;7.13;;;6.63;;
2129;SDS011;1071;52.544;13.374;2023-06-26T08:11:55;7.53;;;6.93;;
2129;SDS011;1071;52.544;13.374;2023-06-26T08:14:23;8.10;;;7.40;;
2129;SDS011;1071;52.544;13.374;2023-06-26T08:16:50;8.90;;;7.90;;
2129;SDS011;1071;52.544;13.374;2023-06-26T08:19:17;7.67;;;7.17;;
2129;SDS011;1071;52.544;13.374;2023-06-26T08:21:47;7.87;;;7.20;;
2129;SDS011;1071;52.544;13.374;2023-06-26T08:24:14;7.10;;;6.50;;
2129;SDS011;1071;52.544;13.374;2023-06-26T08:26:44;7.20;;;6.67;;
2129;SDS011;1071;52.544;13.374;2023-06-26T08:29:21;8.90;;;8.20;;
2129;SDS011;1071;52.544;13.374;2023-06-26T08:31:48;6.90;;;6.40;;
2129;SDS011;1071;52.544;13.374;2023-06-26T08:34:15;8.93;;;8.23;;
2129;SDS011;1071;52.544;13.374;2023-06-26T08:36:41;8.77;;;8.17;;
2129;SDS011;1071;52.544;13.374;2023-06-26T08:39:09;6.87;;;6.27;;
2129;SDS011;1071;52.544;13.374;2023-06-26T08:41:37;9.30;;;8.40;;
2129;SDS011;1071;52.544;13.374;2023-06-26T08:44:04;6.73;;;6.13;;
2129;SDS011;1071;52.544;13.374;2023-06-26T08:46:32;7.10;;;6.60;;
2129;SDS011;1071;52.544;13.374;2023-06-26T08:49:00;6.40;;;5.90;;
2129;SDS011;1071;52.544;13.374;2023-06-26T08:51:31;7.83;;;7.13;;
2129;SDS011;1071;52.544;13.374;2023-06-26T08:54:02;7.00;;;6.43;;
2129;SDS011;1071;52.544;13.374;2023-06-26T08:56:40;7.23;;;6.73;;
2129;SDS011;1071;52.544;13.374;2023-06-26T08:59:09;6.77;;;6.27;;
2129;SDS011;1071;52.544;13.374;2023-06-26T09:01:42;6.50;;;6.00;;
2129;SDS011;1071;52.544;13.374;2023-06-26T09:04:11;5.20;;;4.90;;
2129;SDS011;1071;52.544;13.374;2023-06-26T09:06:43;6.67;;;6.17;;
2129;SDS011;1071;52.544;13.374;2023-06-26T09:09:13;7.40;;;6.90;;
2129;SDS011;1071;52.544;13.374;2023-06-26T09:11:40;6.33;;;5.93;;
2129;SDS011;1071;52.544;13.374;2023-06-26T09:14:08;9.10;;;8.30;;
2129;SDS011;1071;52.544;13.374;2023-06-26T09:16:41;8.57;;;7.83;;
2129;SDS011;1071;52.544;13.374;2023-06-26T09:19:09;6.80;;;6.30;;
2129;SDS011;1071;52.544;13.374;2023-06-26T09:21:40;6.80;;;6.30;;
2129;SDS011;1071;52.544;13.374;2023-06-26T09:24:11;7.10;;;6.50;;
2129;SDS011;1071;52.544;13.374;2023-06-26T09:26:39;6.07;;;5.57;;
2129;SDS011;1071;52.544;13.374;2023-06-26T09:29:06;6.70;;;6.20;;
2129;SDS011;1071;52.544;13.374;2023-06-26T09:31:44;6.00;;;5.60;;
2129;SDS011;1071;52.544;13.374;2023-06-26T09:34:14;5.67;;;5.17;;
2129;SDS011;1071;52.544;13.374;2023-06-26T09:36:41;6.10;;;5.60;;
2129;SDS011;1071;52.544;13.374;2023-06-26T09:39:11;6.13;;;5.53;;
2129;SDS011;1071;52.544;13.374;2023-06-26T09:41:40;6.40;;;5.60;;
2129;SDS011;1071;52.544;13.374;2023-06-26T09:44:10;5.57;;;5.20;;
2129;SDS011;1071;52.544;13.374;2023-06-26T09:46:38;6.00;;;5.60;;
2129;SDS011;1071;52.544;13.374;2023-06-26T09:49:08;5.90;;;5.50;;
2129;SDS011;1071;52.544;13.374;2023-06-26T09:51:48;6.83;;;6.27;;
2129;SDS011;1071;52.544;13.374;2023-06-26T09:54:17;6.20;;;5.73;;
2129;SDS011;1071;52.544;13.374;2023-06-26T09:56:44;5.03;;;4.63;;
2129;SDS011;1071;52.544;13.374;2023-06-26T09:59:23;4.97;;;4.67;;
2129;SDS011;1071;52.544;13.374;2023-06-26T10:01:50;5.30;;;4.90;;
2129;SDS011;1071;52.544;13.374;2023-06-26T10:04:48;4.93;;;4.57;;
2129;SDS011;1071;52.544;13.374;2023-06-26T10:07:17;10.63;;;5.90;;
2129;SDS011;1071;52.544;13.374;2023-06-26T10:09:45;5.10;;;4.60;;
2129;SDS011;1071;52.544;13.374;2023-06-26T10:12:15;5.80;;;4.17;;
2129;SDS011;1071;52.544;13.374;2023-06-26T10:14:52;5.20;;;4.53;;
2129;SDS011;1071;52.544;13.374;2023-06-26T10:17:22;8.37;;;5.30;;
2129;SDS011;1071;52.544;13.374;2023-06-26T10:19:54;7.10;;;6.40;;
2129;SDS011;1071;52.544;13.374;2023-06-26T10:22:25;6.50;;;5.30;;
2129;SDS011;1071;52.544;13.374;2023-06-26T10:25:08;5.93;;;4.63;;
2129;SDS011;1071;52.544;13.374;2023-06-26T10:27:38;6.20;;;5.60;;
2129;SDS011;1071;52.544;13.374;2023-06-26T10:30:11;5.10;;;4.80;;
2129;SDS011;1071;52.544;13.374;2023-06-26T10:32:54;5.43;;;5.00;;
2129;SDS011;1071;52.544;13.374;2023-06-26T10:35:27;5.27;;;4.83;;
2129;SDS011;1071;52.544;13.374;2023-06-26T10:37:59;5.53;;;5.13;;
2129;SDS011;1071;52.544;13.374;2023-06-26T10:40:39;4.83;;;4.53;;
2129;SDS011;1071;52.544;13.374;2023-06-26T10:43:08;5.13;;;4.77;;
2129;SDS011;1071;52.544;13.374;2023-06-26T10:45:36;5.50;;;5.10;;
2129;SDS011;1071;52.544;13.374;2023-06-26T10:48:09;5.70;;;5.30;;
2129;SDS011;1071;52.544;13.374;2023-06-26T10:50:38;5.70;;;5.27;;
2129;SDS011;1071;52.544;13.374;2023-06-26T10:53:12;5.50;;;5.10;;
2129;SDS011;1071;52.544;13.374;2023-06-26T10:55:48;5.60;;;5.20;;
2129;SDS011;1071;52.544;13.374;2023-06-26T10:58:27;5.00;;;4.70;;
2129;SDS011;1071;52.544;13.374;2023-06-26T11:01:14;5.47;;;5.07;;
2129;SDS011;1071;52.544;13.374;2023-06-26T11:03:44;5.33;;;4.93;;
2129;SDS011;1071;52.544;13.374;2023-06-26T11:06:15;5.73;;;5.33;;
2129;SDS011;1071;52.544;13.374;2023-06-26T11:08:47;6.27;;;5.77;;
2129;SDS011;1071;52.544;13.374;2023-06-26T11:11:15;7.77;;;7.23;;
2129;SDS011;1071;52.544;13.374;2023-06-26T11:13:45;6.07;;;5.60;;
2129;SDS011;1071;52.544;13.374;2023-06-26T11:16:15;7.10;;;6.50;;
2129;SDS011;1071;52.544;13.374;2023-06-26T11:18:42;7.07;;;6.37;;
2129;SDS011;1071;52.544;13.374;2023-06-26T11:21:11;6.63;;;4.97;;
2129;SDS011;1071;52.544;13.374;2023-06-26T11:23:40;5.40;;;4.90;;
2129;SDS011;1071;52.544;13.374;2023-06-26T11:26:14;6.37;;;5.27;;
2129;SDS011;1071;52.544;13.374;2023-06-26T11:28:46;5.87;;;5.47;;
2129;SDS011;1071;52.544;13.374;2023-06-26T11:31:28;5.40;;;5.00;;
2129;SDS011;1071;52.544;13.374;2023-06-26T11:33:59;5.00;;;4.50;;
2129;SDS011;1071;52.544;13.374;2023-06-26T11:36:29;5.10;;;4.77;;
2129;SDS011;1071;52.544;13.374;2023-06-26T11:38:58;5.37;;;4.97;;
2129;SDS011;1071;52.544;13.374;2023-06-26T11:41:26;6.03;;;5.43;;
2129;SDS011;1071;52.544;13.374;2023-06-26T11:43:55;5.00;;;4.60;;
2129;SDS011;1071;52.544;13.374;2023-06-26T11:46:22;5.60;;;5.20;;
2129;SDS011;1071;52.544;13.374;2023-06-26T11:48:49;5.10;;;4.70;;
2129;SDS011;1071;52.544;13.374;2023-06-26T11:51:17;6.67;;;6.17;;
2129;SDS011;1071;52.544;13.374;2023-06-26T11:53:45;6.53;;;6.07;;
2129;SDS011;1071;52.544;13.374;2023-06-26T11:56:15;5.53;;;5.10;;
2129;SDS011;1071;52.544;13.374;2023-06-26T11:58:56;5.80;;;5.20;;
2129;SDS011;1071;52.544;13.374;2023-06-26T12:01:30;5.73;;;5.30;;
2129;SDS011;1071;52.544;13.374;2023-06-26T12:04:08;5.80;;;5.40;;
2129;SDS011;1071;52.544;13.374;2023-06-26T12:06:37;6.13;;;5.63;;
2129;SDS011;1071;52.544;13.374;2023-06-26T12:09:08;7.53;;;6.93;;
2129;SDS011;1071;52.544;13.374;2023-06-26T12:11:37;6.87;;;6.27;;
2129;SDS011;1071;52.544;13.374;2023-06-26T12:14:09;7.87;;;6.93;;
2129;SDS011;1071;52.544;13.374;2023-06-26T12:16:37;11.33;;;10.43;;
2129;SDS011;1071;52.544;13.374;2023-06-26T12:19:06;14.00;;;12.70;;
2129;SDS011;1071;52.544;13.374;2023-06-26T12:21:47;18.70;;;17.00;;
2129;SDS011;1071;52.544;13.374;2023-06-26T12:24:18;25.80;;;23.40;;
2129;SDS011;1071;52.544;13.374;2023-06-26T12:26:49;26.67;;;24.17;;
2129;SDS011;1071;52.544;13.374;2023-06-26T12:29:24;11.23;;;10.13;;
2129;SDS011;1071;52.544;13.374;2023-06-26T12:31:57;6.10;;;5.60;;
2129;SDS011;1071;52.544;13.374;2023-06-26T12:34:26;5.60;;;5.20;;
2129;SDS011;1071;52.544;13.374;2023-06-26T12:36:58;6.10;;;5.70;;
2129;SDS011;1071;52.544;13.374;2023-06-26T12:39:26;7.87;;;7.27;;
2129;SDS011;1071;52.544;13.374;2023-06-26T12:41:57;5.93;;;5.43;;
2129;SDS011;1071;52.544;13.374;2023-06-26T12:44:28;7.03;;;6.47;;
2129;SDS011;1071;52.544;13.374;2023-06-26T12:46:58;8.10;;;6.20;;
2129;SDS011;1071;52.544;13.374;2023-06-26T12:49:29;8.93;;;8.20;;
2129;SDS011;1071;52.544;13.374;2023-06-26T12:51:57;10.10;;;9.20;;
2129;SDS011;1071;52.544;13.374;2023-06-26T12:54:28;10.97;;;9.03;;
2129;SDS011;1071;52.544;13.374;2023-06-26T12:56:56;8.57;;;7.80;;
2129;SDS011;1071;52.544;13.374;2023-06-26T12:59:23;7.47;;;6.90;;
2129;SDS011;1071;52.544;13.374;2023-06-26T13:01:51;9.17;;;8.27;;
2129;SDS011;1071;52.544;13.374;2023-06-26T13:04:18;7.03;;;6.53;;
2129;SDS011;1071;52.544;13.374;2023-06-26T13:06:47;10.43;;;8.97;;
2129;SDS011;1071;52.544;13.374;2023-06-26T13:09:14;9.27;;;8.47;;
2129;SDS011;1071;52.544;13.374;2023-06-26T13:11:42;7.83;;;7.33;;
2129;SDS011;1071;52.544;13.374;2023-06-26T13:14:11;9.50;;;8.70;;
2129;SDS011;1071;52.544;13.374;2023-06-26T13:16:38;8.80;;;8.10;;
2129;SDS011;1071;52.544;13.374;2023-06-26T13:19:06;9.10;;;8.40;;
2129;SDS011;1071;52.544;13.374;2023-06-26T13:21:36;7.63;;;7.10;;
2129;SDS011;1071;52.544;13.374;2023-06-26T13:24:03;10.23;;;9.33;;
2129;SDS011;1071;52.544;13.374;2023-06-26T13:26:31;9.40;;;8.57;;
2129;SDS011;1071;52.544;13.374;2023-06-26T13:29:02;8.87;;;8.13;;
2129;SDS011;1071;52.544;13.374;2023-06-26T13:31:30;9.33;;;8.63;;
2129;SDS011;1071;52.544;13.374;2023-06-26T13:33:58;8.27;;;7.67;;
2129;SDS011;1071;52.544;13.374;2023-06-26T13:36:30;8.10;;;7.50;;
2129;SDS011;1071;52.544;13.374;2023-06-26T13:38:59;8.80;;;8.10;;
2129;SDS011;1071;52.544;13.374;2023-06-26T13:41:27;8.07;;;7.47;;
2129;SDS011;1071;52.544;13.374;2023-06-26T13:43:56;7.83;;;7.30;;
2129;SDS011;1071;52.544;13.374;2023-06-26T13:46:23;8.10;;;7.50;;
2129;SDS011;1071;52.544;13.374;2023-06-26T13:48:51;10.67;;;9.60;;
2129;SDS011;1071;52.544;13.374;2023-06-26T13:51:18;9.13;;;8.43;;
2129;SDS011;1071;52.544;13.374;2023-06-26T13:53:45;8.67;;;7.97;;
2129;SDS011;1071;52.544;13.374;2023-06-26T13:56:12;9.40;;;8.43;;
2129;SDS011;1071;52.544;13.374;2023-06-26T13:58:39;9.10;;;8.30;;
2129;SDS011;1071;52.544;13.374;2023-06-26T14:01:06;12.00;;;11.00;;
2129;SDS011;1071;52.544;13.374;2023-06-26T14:03:33;12.33;;;11.23;;
2129;SDS011;1071;52.544;13.374;2023-06-26T14:06:04;12.97;;;11.97;;
2129;SDS011;1071;52.544;13.374;2023-06-26T14:08:31;11.57;;;10.67;;
2129;SDS011;1071;52.544;13.374;2023-06-26T14:10:57;11.63;;;10.63;;
2129;SDS011;1071;52.544;13.374;2023-06-26T14:13:26;13.10;;;9.60;;
2129;SDS011;1071;52.544;13.374;2023-06-26T14:15:53;9.97;;;9.07;;
2129;SDS011;1071;52.544;13.374;2023-06-26T14:18:21;8.37;;;7.77;;
2129;SDS011;1071;52.544;13.374;2023-06-26T14:20:48;8.57;;;7.77;;
2129;SDS011;1071;52.544;13.374;2023-06-26T14:23:17;13.30;;;9.63;;
2129;SDS011;1071;52.544;13.374;2023-06-26T14:25:44;10.77;;;9.10;;
2129;SDS011;1071;52.544;13.374;2023-06-26T14:28:11;18.53;;;11.60;;
2129;SDS011;1071;52.544;13.374;2023-06-26T14:30:38;14.57;;;9.97;;
2129;SDS011;1071;52.544;13.374;2023-06-26T14:33:05;12.50;;;9.80;;
2129;SDS011;1071;52.544;13.374;2023-06-26T14:35:33;16.43;;;11.20;;
2129;SDS011;1071;52.544;13.374;2023-06-26T14:38:03;7.83;;;7.03;;
2129;SDS011;1071;52.544;13.374;2023-06-26T14:40:31;6.80;;;5.50;;
2129;SDS011;1071;52.544;13.374;2023-06-26T14:42:58;10.60;;;6.10;;
2129;SDS011;1071;52.544;13.374;2023-06-26T14:45:25;9.10;;;7.03;;
2129;SDS011;1071;52.544;13.374;2023-06-26T14:47:52;6.67;;;6.10;;
2129;SDS011;1071;52.544;13.374;2023-06-26T14:50:22;15.07;;;13.57;;
2129;SDS011;1071;52.544;13.374;2023-06-26T14:52:50;17.10;;;11.17;;
2129;SDS011;1071;52.544;13.374;2023-06-26T14:55:17;10.40;;;9.40;;
2129;SDS011;1071;52.544;13.374;2023-06-26T14:57:45;10.50;;;9.50;;
2129;SDS011;1071;52.544;13.374;2023-06-26T15:00:12;10.13;;;9.23;;
2129;SDS011;1071;52.544;13.374;2023-06-26T15:02:40;21.70;;;14.07;;